Time;durP1;ratioP1;P1;durP2;ratioP2;P2;SDS_P1;SDS_P2;PMS_P1;PMS_P2;Temp;Humidity;BMP_temperature;BMP_pressure;BME280_temperature;BME280_humidity;BME280_pressure;Samples;Min_cycle;Max_cycle;Signal;HPM_P1;HPM_P2
2022/09/29 03:59:39;;;;;;;10.55;6.55;;;;;;;11.84;100.00;98926.84;6651733;26;20086;-89
2022/09/29 04:24:08;;;;;;;11.35;6.03;;;;;;;11.75;100.00;98910.13;6667622;26;20039;-88
2022/09/29 04:35:29;;;;;;;14.05;6.55;;;;;;;11.73;100.00;98901.44;6665988;26;20727;-90
2022/09/29 04:54:58;;;;;;;11.75;7.03;;;;;;;11.80;100.00;98904.91;6668230;26;20062;-91
2022/09/29 05:14:35;;;;;;;10.43;6.60;;;;;;;11.79;100.00;98911.34;6655753;26;20086;-90
2022/09/29 09:15:25;;;;;;;3.17;1.50;;;;;;;15.62;100.00;99068.94;6549635;27;34917;-91
2022/09/29 10:48:13;;;;;;;1.10;1.00;;;;;;;19.45;73.53;99085.22;6657796;26;34164;-90
2022/09/29 10:55:17;;;;;;;3.28;1.20;;;;;;;19.37;76.71;99088.50;6659936;26;34261;-90
2022/09/29 10:58:28;;;;;;;1.20;1.10;;;;;;;19.29;77.57;99092.56;6655525;26;33769;-88
2022/09/29 11:01:58;;;;;;;1.55;1.20;;;;;;;19.64;75.68;99100.03;6637915;26;32396;-89
2022/09/29 11:05:16;;;;;;;1.87;1.75;;;;;;;19.44;77.28;99095.34;6659701;26;34025;-90
2022/09/29 11:08:24;;;;;;;1.98;1.80;;;;;;;19.62;74.83;99096.75;6659855;26;34635;-89
2022/09/29 11:11:35;;;;;;;1.70;1.60;;;;;;;19.78;74.27;99100.41;6638951;26;33865;-89
2022/09/29 11:15:20;;;;;;;1.92;1.80;;;;;;;19.56;73.49;99097.84;6655494;26;33655;-89
2022/09/29 11:18:33;;;;;;;1.90;1.60;;;;;;;19.85;72.07;99100.94;6659183;26;33360;-89
2022/09/29 11:21:41;;;;;;;1.95;1.80;;;;;;;20.39;73.28;99088.72;6659457;26;33412;-89
2022/09/29 11:25:03;;;;;;;1.73;1.35;;;;;;;20.40;68.01;99087.59;6651775;26;33637;-89
2022/09/29 11:28:22;;;;;;;1.35;1.20;;;;;;;20.91;70.77;99087.56;6656922;26;35011;-88
2022/09/29 11:31:34;;;;;;;2.47;1.60;;;;;;;21.19;65.40;99091.59;6640445;26;34713;-90
2022/09/29 11:35:04;;;;;;;1.27;1.17;;;;;;;21.40;63.42;99089.59;6667525;26;35026;-90
2022/09/29 11:38:33;;;;;;;1.85;0.95;;;;;;;21.40;62.75;99084.13;6681421;26;34456;-90
2022/09/29 11:42:18;;;;;;;0.60;0.60;;;;;;;21.37;62.65;99095.66;6665175;26;33959;-89
2022/09/29 11:45:44;;;;;;;0.62;0.50;;;;;;;20.73;64.60;99086.22;6630205;26;32399;-89
2022/09/29 11:49:05;;;;;;;0.70;0.70;;;;;;;20.34;64.99;99080.50;6654537;26;33358;-89
2022/09/29 11:52:14;;;;;;;1.45;0.50;;;;;;;19.68;65.26;99095.72;6661063;26;33660;-90
2022/09/29 11:55:52;;;;;;;;;;;;;;;19.26;66.98;99098.53;6680614;26;35396;-89
2022/09/29 11:59:21;;;;;;;1.87;0.55;;;;;;;19.29;68.06;99094.47;6591651;26;34483;-89
2022/09/29 12:02:52;;;;;;;2.15;0.65;;;;;;;19.43;67.52;99098.34;6655481;26;33941;-90
2022/09/29 12:06:30;;;;;;;0.82;0.82;;;;;;;19.87;67.17;99104.22;6676650;26;34346;-90
2022/09/29 12:09:47;;;;;;;0.90;0.60;;;;;;;19.90;64.47;99108.34;6663207;26;33833;-89
2022/09/29 12:13:07;;;;;;;2.25;0.70;;;;;;;19.41;66.67;99120.44;6659016;26;33602;-90
2022/09/29 12:16:14;;;;;;;;;;;;;;;19.04;67.14;99117.78;6660103;26;33919;-90
2022/09/29 12:19:22;;;;;;;1.50;0.90;;;;;;;18.95;67.42;99122.09;6644040;26;35825;-90
2022/09/29 12:22:25;;;;;;;0.65;0.65;;;;;;;18.93;67.56;99129.75;6662269;26;33991;-90
2022/09/29 12:25:36;;;;;;;1.52;0.73;;;;;;;18.82;68.05;99125.31;6645271;26;32608;-90
2022/09/29 12:28:53;;;;;;;2.87;0.80;;;;;;;18.55;69.79;99126.19;6662197;26;35299;-93
2022/09/29 12:31:59;;;;;;;0.50;0.50;;;;;;;18.33;71.11;99124.34;6658008;26;34956;-90
2022/09/29 12:35:16;;;;;;;0.68;0.68;;;;;;;18.14;73.84;99123.09;6659577;26;34515;-90
2022/09/29 12:38:27;;;;;;;1.00;0.88;;;;;;;17.73;76.92;99121.84;6658011;26;33742;-90
2022/09/29 12:46:00;;;;;;;1.25;0.90;;;;;;;17.10;79.97;99127.59;6666020;26;20076;-91
2022/09/29 12:57:43;;;;;;;0.80;0.80;;;;;;;16.38;89.19;99122.97;6653029;26;20083;-92
2022/09/29 13:13:12;;;;;;;1.42;0.80;;;;;;;16.42;92.11;99154.00;6654656;26;20090;-90
2022/09/29 13:21:34;;;;;;;1.30;1.20;;;;;;;16.68;90.53;99148.97;6581727;26;20530;-90
2022/09/29 13:24:59;;;;;;;0.85;0.70;;;;;;;17.26;88.40;99147.69;6543090;27;33965;-90
2022/09/29 13:28:11;;;;;;;1.02;0.82;;;;;;;17.68;84.04;99150.62;6529790;27;34000;-89
2022/09/29 13:31:23;;;;;;;3.12;1.17;;;;;;;18.08;81.33;99157.66;6541961;27;33494;-90
2022/09/29 13:34:35;;;;;;;1.23;1.05;;;;;;;18.69;78.91;99157.38;6543641;27;33742;-89
2022/09/29 13:37:47;;;;;;;0.52;0.52;;;;;;;19.09;74.26;99147.84;6543967;27;33800;-89
2022/09/29 13:41:15;;;;;;;0.60;0.60;;;;;;;19.48;73.57;99142.88;6531642;27;33637;-89
2022/09/29 13:44:22;;;;;;;;;;;;;;;19.26;72.80;99136.75;6547065;27;35027;-89
2022/09/29 13:47:33;;;;;;;1.30;0.55;;;;;;;19.07;69.82;99143.72;6573665;27;33711;-89
2022/09/29 13:50:45;;;;;;;2.00;1.10;;;;;;;19.01;72.40;99145.59;6572175;27;33763;-89
2022/09/29 13:54:21;;;;;;;0.95;0.80;;;;;;;19.07;74.02;99157.38;6571736;27;32937;-89
2022/09/29 13:57:24;;;;;;;1.35;0.80;;;;;;;18.55;73.14;99154.25;6573178;27;33901;-89
2022/09/29 14:00:31;;;;;;;0.57;0.55;;;;;;;18.02;75.00;99161.41;6571662;27;32735;-89
2022/09/29 14:03:44;;;;;;;0.80;0.80;;;;;;;17.72;77.77;99161.81;6575181;27;33606;-89
2022/09/29 14:06:47;;;;;;;3.95;1.00;;;;;;;17.50;82.31;99167.28;6602158;27;33447;-89
2022/09/29 14:09:50;;;;;;;1.75;1.17;;;;;;;17.30;82.23;99167.84;6602722;27;33806;-89
2022/09/29 14:13:11;;;;;;;2.55;1.35;;;;;;;17.17;84.61;99165.47;6583284;27;33080;-88
2022/09/29 14:16:36;;;;;;;0.93;0.88;;;;;;;17.22;84.87;99168.28;6586601;26;33848;-93
2022/09/29 14:20:04;;;;;;;1.10;0.90;;;;;;;17.24;82.75;99171.56;6610309;26;33319;-90
2022/09/29 14:23:07;;;;;;;3.20;1.10;;;;;;;17.36;84.88;99169.56;6613484;26;32405;-89
2022/09/29 14:26:46;;;;;;;1.80;0.95;;;;;;;17.44;85.17;99169.13;6648875;26;34320;-89
2022/09/29 14:29:52;;;;;;;;;;;;;;;17.25;82.66;99175.12;6629522;26;33652;-88
2022/09/29 14:33:03;;;;;;;0.98;0.88;;;;;;;17.06;84.15;99174.59;6630325;26;34856;-87
2022/09/29 14:36:13;;;;;;;2.80;1.27;;;;;;;17.11;82.87;99180.94;6636412;26;33761;-88
2022/09/29 14:39:16;;;;;;;1.55;1.20;;;;;;;17.05;85.39;99179.19;6632535;26;33737;-89
2022/09/29 14:42:35;;;;;;;1.30;1.02;;;;;;;17.14;84.79;99185.87;6609876;26;32631;-87
2022/09/29 14:53:05;;;;;;;2.12;1.25;;;;;;;17.51;85.16;99203.50;6608644;26;33637;-87
2022/09/29 14:56:29;;;;;;;1.62;1.45;;;;;;;17.45;84.43;99206.13;6629513;26;35131;-88
2022/09/29 14:59:47;;;;;;;4.12;1.23;;;;;;;17.49;83.41;99205.63;6629773;26;33775;-87
2022/09/29 15:02:54;;;;;;;1.15;1.10;;;;;;;17.43;82.16;99213.75;6630326;26;33909;-88
2022/09/29 15:06:13;;;;;;;1.80;1.15;;;;;;;17.50;80.50;99210.84;6629999;26;33841;-88
2022/09/29 15:09:19;;;;;;;2.33;1.20;;;;;;;17.33;81.97;99207.34;6630238;26;33560;-88
2022/09/29 15:12:29;;;;;;;1.42;1.00;;;;;;;17.27;81.72;99198.28;6609074;26;32300;-88
2022/09/29 15:15:34;;;;;;;;;;;;;;;17.32;82.20;99203.78;6630297;26;33689;-88
2022/09/29 15:19:14;;;;;;;1.62;1.52;;;;;;;17.12;83.05;99214.38;6629591;26;33772;-88
2022/09/29 15:22:51;;;;;;;2.92;1.58;;;;;;;17.00;84.70;99218.00;6613645;26;32682;-87
2022/09/29 15:25:57;;;;;;;1.48;1.10;;;;;;;16.82;85.13;99210.13;6616927;26;32439;-87
2022/09/29 15:29:06;;;;;;;1.02;0.93;;;;;;;16.80;83.71;99209.53;6629635;26;34298;-87
2022/09/29 15:32:29;;;;;;;1.62;1.10;;;;;;;16.74;84.22;99205.88;6630730;26;34497;-87
2022/09/29 15:35:43;;;;;;;1.20;1.00;;;;;;;16.52;84.73;99213.91;6628800;26;35552;-88
2022/09/29 15:38:51;;;;;;;1.17;1.10;;;;;;;16.36;86.23;99213.91;6629026;26;35305;-87
2022/09/29 15:42:15;;;;;;;1.37;1.08;;;;;;;16.25;85.64;99205.56;6607696;26;33653;-88
2022/09/29 15:45:21;;;;;;;2.78;1.40;;;;;;;16.13;89.80;99225.69;6630468;26;33470;-88
2022/09/29 15:48:26;;;;;;;2.90;1.75;;;;;;;15.89;91.27;99231.22;6629677;26;34352;-87
2022/09/29 15:51:29;;;;;;;1.60;1.50;;;;;;;15.70;93.99;99227.00;6610251;26;32682;-87
2022/09/29 15:54:37;;;;;;;3.72;1.77;;;;;;;15.62;94.68;99231.72;6628930;26;33611;-87
2022/09/29 15:57:57;;;;;;;2.42;1.80;;;;;;;15.53;95.75;99233.16;6626317;26;34459;-87
2022/09/29 16:01:04;;;;;;;2.67;1.73;;;;;;;15.54;95.61;99240.22;6627299;26;33600;-88
2022/09/29 16:04:08;;;;;;;2.12;1.92;;;;;;;15.43;97.32;99243.78;6628191;26;34022;-88
2022/09/29 16:07:19;;;;;;;2.33;1.92;;;;;;;15.26;99.97;99243.66;6607619;26;33766;-88
2022/09/29 16:10:28;;;;;;;2.78;2.15;;;;;;;15.19;99.37;99254.63;6628844;26;34518;-87
2022/09/29 16:13:35;;;;;;;4.93;1.90;;;;;;;15.10;99.05;99261.47;6629474;26;33511;-87
2022/09/29 16:16:48;;;;;;;4.25;2.00;;;;;;;15.08;99.07;99255.44;6630313;26;33593;-88
2022/09/29 16:19:51;;;;;;;4.53;2.00;;;;;;;15.03;100.00;99255.31;6629885;26;33629;-89
2022/09/29 16:22:55;;;;;;;3.17;2.17;;;;;;;14.96;100.00;99255.44;6631744;26;34399;-88
2022/09/29 16:26:06;;;;;;;3.30;2.08;;;;;;;14.92;100.00;99259.69;6633320;26;33494;-89
2022/09/29 16:29:09;;;;;;;7.68;2.92;;;;;;;14.86;100.00;99270.59;6631248;26;33776;-88
2022/09/29 16:32:31;;;;;;;3.10;2.70;;;;;;;14.81;100.00;99281.34;6630992;26;33458;-88
2022/09/29 16:35:52;;;;;;;4.90;2.70;;;;;;;14.89;100.00;99281.00;6631916;26;33947;-88
2022/09/29 16:38:54;;;;;;;3.35;2.40;;;;;;;14.90;100.00;99271.81;6630752;26;33347;-87
2022/09/29 16:42:02;;;;;;;3.40;2.40;;;;;;;14.86;100.00;99276.87;6635587;26;33777;-86
2022/09/29 16:45:06;;;;;;;3.47;2.60;;;;;;;14.84;100.00;99273.56;6646424;26;34616;-88
2022/09/29 16:48:09;;;;;;;2.85;2.60;;;;;;;14.79;100.00;99278.03;6610659;26;33106;-88
2022/09/29 16:51:18;;;;;;;4.20;2.15;;;;;;;14.76;100.00;99278.50;6612346;26;33631;-90
2022/09/29 16:55:26;;;;;;;3.05;2.70;;;;;;;14.63;100.00;99266.00;6624761;26;33515;31
2022/09/29 16:58:29;;;;;;;3.05;2.58;;;;;;;14.58;100.00;99282.91;6573037;26;33485;-91
